Time;durP1;ratioP1;P1;durP2;ratioP2;P2;SDS_P1;SDS_P2;PMS_P1;PMS_P2;Temp;Humidity;BMP_temperature;BMP_pressure;BME280_temperature;BME280_humidity;BME280_pressure;Samples;Min_cycle;Max_cycle;Signal;HPM_P1;HPM_P2
2023/11/07 00:00:26;;;;;;;11.13;5.70;;;;;;;-146.25;100.00;52546.63;2081317;28;38041;-73
2023/11/07 00:01:28;;;;;;;13.43;5.10;;;;;;;-146.25;100.00;52506.06;2090627;28;35026;-73
2023/11/07 00:02:30;;;;;;;11.48;5.57;;;;;;;-146.25;100.00;52542.56;2090180;28;29913;-71
2023/11/07 00:03:32;;;;;;;9.80;4.97;;;;;;;-146.25;100.00;52487.81;2090434;28;34893;-72
2023/11/07 00:04:34;;;;;;;9.52;4.65;;;;;;;-146.25;100.00;52550.69;2090406;28;34579;-72
2023/11/07 00:05:36;;;;;;;10.52;4.88;;;;;;;-146.25;100.00;52548.66;2090625;28;36376;-72
2023/11/07 00:06:40;;;;;;;9.68;4.70;;;;;;;-146.25;100.00;52532.44;2090293;28;27482;-71
2023/11/07 00:07:42;;;;;;;11.30;4.60;;;;;;;-146.25;100.00;52560.81;2091161;28;21319;-72
2023/11/07 00:08:44;;;;;;;10.75;4.63;;;;;;;-146.25;100.00;52558.78;2089758;28;35388;-73
2023/11/07 00:09:45;;;;;;;11.57;4.60;;;;;;;-146.25;100.00;52562.84;2081047;28;37368;-72
2023/11/07 00:10:47;;;;;;;9.80;4.50;;;;;;;-146.25;100.00;52550.69;2081573;28;33033;-72
2023/11/07 00:11:49;;;;;;;10.73;4.88;;;;;;;-146.25;100.00;52510.13;2090358;28;38558;-72
2023/11/07 00:12:51;;;;;;;9.43;4.35;;;;;;;-146.25;100.00;52528.38;2091456;28;20843;-70
2023/11/07 00:13:52;;;;;;;8.93;4.10;;;;;;;-146.25;100.00;52536.50;2090612;28;36758;-72
2023/11/07 00:14:54;;;;;;;11.90;4.63;;;;;;;-146.25;100.00;52510.13;2089925;28;31921;-73
2023/11/07 00:15:56;;;;;;;16.15;4.45;;;;;;;-146.25;100.00;52534.47;2091329;28;20041;-72
2023/11/07 00:16:58;;;;;;;11.18;4.03;;;;;;;-146.25;100.00;52544.59;2089921;28;36360;-72
2023/11/07 00:17:59;;;;;;;12.35;4.32;;;;;;;-146.25;100.00;52528.38;2081740;28;34159;-72
2023/11/07 00:19:03;;;;;;;10.27;3.60;;;;;;;-146.25;100.00;52558.78;2081901;28;20193;-72
2023/11/07 00:20:05;;;;;;;8.68;4.05;;;;;;;-146.25;100.00;52532.44;2081344;28;31335;-72
2023/11/07 00:21:08;;;;;;;9.05;4.07;;;;;;;-146.25;100.00;52540.53;2081842;28;32077;-72
2023/11/07 00:22:09;;;;;;;11.20;4.13;;;;;;;-146.25;100.00;52530.41;2091073;28;20088;-72
2023/11/07 00:23:13;;;;;;;8.45;3.65;;;;;;;-146.25;100.00;52536.50;2087966;28;37064;-72
2023/11/07 00:24:15;;;;;;;10.07;4.38;;;;;;;-146.25;100.00;52534.47;2088468;28;29850;-72
2023/11/07 00:25:17;;;;;;;12.18;4.13;;;;;;;-146.25;100.00;52542.56;2080357;28;20088;-73
2023/11/07 00:26:20;;;;;;;11.95;4.00;;;;;;;-146.25;100.00;52532.44;2080601;28;31685;-72
2023/11/07 00:27:24;;;;;;;8.35;3.90;;;;;;;-146.25;100.00;52562.84;2089151;28;20037;-72
2023/11/07 00:28:26;;;;;;;11.73;4.78;;;;;;;-146.25;100.00;52506.06;2089303;28;20830;-72
2023/11/07 00:29:28;;;;;;;10.55;4.03;;;;;;;-146.25;100.00;52542.56;2088012;28;30114;-72
2023/11/07 00:30:30;;;;;;;11.35;4.20;;;;;;;-146.25;100.00;52542.56;2080115;28;31680;-72
2023/11/07 00:31:32;;;;;;;14.63;4.00;;;;;;;-146.25;100.00;52500.00;2080765;28;20364;-71
2023/11/07 00:32:34;;;;;;;11.63;4.07;;;;;;;-146.25;100.00;52542.56;2080166;28;30785;-72
2023/11/07 00:33:35;;;;;;;11.70;4.22;;;;;;;-146.25;100.00;52524.31;2079722;28;29782;-72
2023/11/07 00:34:39;;;;;;;9.90;4.00;;;;;;;-146.25;100.00;52546.63;2089773;28;20226;-72
2023/11/07 00:35:41;;;;;;;11.00;4.35;;;;;;;-146.25;100.00;52532.44;2079534;28;29157;-72
2023/11/07 00:36:46;;;;;;;14.98;4.35;;;;;;;-146.25;100.00;52562.84;2080901;28;23519;-72
2023/11/07 00:37:51;;;;;;;11.20;3.90;;;;;;;-146.25;100.00;52554.75;2080501;28;20030;-73
2023/11/07 00:38:53;;;;;;;10.13;3.78;;;;;;;-146.25;100.00;52546.63;2081233;28;20128;-73
2023/11/07 00:39:54;;;;;;;11.02;3.63;;;;;;;-146.25;100.00;52520.28;2088275;28;26574;-73
2023/11/07 00:40:59;;;;;;;8.45;3.35;;;;;;;-146.25;100.00;52558.78;2088368;28;36349;-73
2023/11/07 00:42:00;;;;;;;7.38;3.50;;;;;;;-146.25;100.00;52542.56;2087986;28;27814;-72
2023/11/07 00:43:04;;;;;;;9.57;3.75;;;;;;;-146.25;100.00;52554.75;2088668;28;27980;-73
2023/11/07 00:44:06;;;;;;;10.00;3.33;;;;;;;-146.25;100.00;52500.00;2088564;28;28920;-72
2023/11/07 00:45:08;;;;;;;9.57;3.42;;;;;;;-146.25;100.00;52514.19;2089589;28;20049;-73
2023/11/07 00:46:10;;;;;;;10.35;3.63;;;;;;;-146.25;100.00;52540.53;2079764;28;33449;-72
2023/11/07 00:47:12;;;;;;;8.00;3.42;;;;;;;-146.25;100.00;52518.25;2080636;28;28432;-73
2023/11/07 00:48:14;;;;;;;11.35;3.53;;;;;;;-146.25;100.00;52506.06;2088230;28;20930;-73
2023/11/07 00:49:17;;;;;;;9.85;3.05;;;;;;;-146.25;100.00;52562.84;2088061;28;33371;-72
2023/11/07 00:50:19;;;;;;;12.73;3.55;;;;;;;-146.25;100.00;52508.09;2088342;28;20060;-74
2023/11/07 00:51:23;;;;;;;9.07;3.20;;;;;;;-146.25;100.00;52510.13;2088711;28;20081;-72
2023/11/07 00:52:24;;;;;;;10.77;3.38;;;;;;;-146.25;100.00;52530.41;2088445;28;21099;-73
2023/11/07 00:53:26;;;;;;;8.10;3.55;;;;;;;-146.25;100.00;52544.59;2089178;28;21668;-73
2023/11/07 00:54:29;;;;;;;12.30;3.35;;;;;;;-146.25;100.00;52534.47;2089001;28;20068;-72
2023/11/07 00:55:30;;;;;;;7.72;3.00;;;;;;;-146.25;100.00;52540.53;2080090;28;31087;-73
2023/11/07 00:56:32;;;;;;;10.55;3.58;;;;;;;-146.25;100.00;52524.31;2080597;28;20828;-73
2023/11/07 00:57:34;;;;;;;9.30;3.92;;;;;;;-146.25;100.00;52497.97;2088321;28;29116;-73
2023/11/07 00:58:36;;;;;;;9.45;3.28;;;;;;;-146.25;100.00;52532.44;2088832;28;26090;-73
2023/11/07 00:59:38;;;;;;;11.80;4.10;;;;;;;-146.25;100.00;52554.75;2089059;28;23237;-74
2023/11/07 01:00:40;;;;;;;10.57;3.67;;;;;;;-146.25;100.00;52522.28;2088992;28;29639;-73
2023/11/07 01:01:42;;;;;;;10.30;3.58;;;;;;;-146.25;100.00;52534.47;2089130;28;30392;-73
2023/11/07 01:02:44;;;;;;;10.77;3.50;;;;;;;-146.25;100.00;52560.81;2089102;28;20768;-73
2023/11/07 01:03:49;;;;;;;12.45;4.10;;;;;;;-146.25;100.00;52534.47;2089015;28;33153;-73
2023/11/07 01:04:52;;;;;;;14.43;3.97;;;;;;;-146.25;100.00;52510.13;2087983;28;32375;-72
2023/11/07 01:05:54;;;;;;;13.50;3.83;;;;;;;-146.25;100.00;52504.03;2089620;28;20045;-72
2023/11/07 01:06:56;;;;;;;13.07;4.20;;;;;;;-146.25;100.00;52506.06;2079700;28;30774;-72
2023/11/07 01:07:58;;;;;;;9.88;3.80;;;;;;;-146.25;100.00;52526.34;2072031;28;25595;-73
2023/11/07 01:09:00;;;;;;;11.40;3.80;;;;;;;-146.25;100.00;52485.81;2078888;28;29145;-73
2023/11/07 01:10:02;;;;;;;10.63;3.45;;;;;;;-146.25;100.00;52518.25;2088446;28;27912;-73
2023/11/07 01:11:05;;;;;;;10.65;3.67;;;;;;;-146.25;100.00;52510.13;2088842;28;20208;-72
2023/11/07 01:12:10;;;;;;;10.40;3.83;;;;;;;-146.25;100.00;52530.41;2080479;28;23091;-74
2023/11/07 01:13:12;;;;;;;8.98;3.78;;;;;;;-146.25;100.00;52534.47;2080746;28;20224;-73
2023/11/07 01:14:14;;;;;;;13.77;4.53;;;;;;;-146.25;100.00;52510.13;2089960;28;20045;-73
2023/11/07 01:15:16;;;;;;;11.77;3.83;;;;;;;-146.25;100.00;52562.84;2089470;28;20064;-73
2023/11/07 01:16:18;;;;;;;11.73;4.22;;;;;;;-146.25;100.00;52512.16;2080161;28;26483;-73
2023/11/07 01:17:20;;;;;;;11.20;4.35;;;;;;;-146.25;100.00;52528.38;2080404;28;20042;-73
2023/11/07 01:18:22;;;;;;;12.13;4.68;;;;;;;-146.25;100.00;52568.94;2089058;28;25979;-74
2023/11/07 01:19:24;;;;;;;12.02;4.97;;;;;;;-146.25;100.00;52518.25;2089571;28;20073;-73
2023/11/07 01:20:31;;;;;;;10.73;4.50;;;;;;;-146.25;100.00;52528.38;2087829;28;29793;-73
2023/11/07 01:21:33;;;;;;;14.05;4.80;;;;;;;-146.25;100.00;52516.22;2088164;28;26026;-73
2023/11/07 01:22:37;;;;;;;13.07;4.85;;;;;;;-146.25;100.00;52489.84;2089299;28;21825;-72
2023/11/07 01:23:38;;;;;;;11.93;4.82;;;;;;;-146.25;100.00;52544.59;2088109;28;28872;-72
2023/11/07 01:24:40;;;;;;;14.48;5.38;;;;;;;-146.25;100.00;52566.91;2087904;28;29595;-73
2023/11/07 01:25:42;;;;;;;11.70;4.60;;;;;;;-146.25;100.00;52512.16;2088272;28;20084;-73
2023/11/07 01:26:44;;;;;;;13.25;4.75;;;;;;;-146.25;100.00;52520.28;2088562;28;30563;-73
2023/11/07 01:27:46;;;;;;;14.82;5.22;;;;;;;-146.25;100.00;52534.47;2088605;28;25610;-73
2023/11/07 01:28:48;;;;;;;14.65;5.25;;;;;;;-146.25;100.00;52516.22;2088958;28;24793;-72
2023/11/07 01:29:50;;;;;;;11.48;5.18;;;;;;;-146.25;100.00;52540.53;2088168;28;27981;-72
2023/11/07 01:30:54;;;;;;;18.52;5.43;;;;;;;-146.25;100.00;52526.34;2080527;28;20034;-72
2023/11/07 01:31:56;;;;;;;11.68;5.15;;;;;;;-146.25;100.00;52542.56;2079998;28;27984;-72
2023/11/07 01:32:58;;;;;;;14.70;5.50;;;;;;;-146.25;100.00;52528.38;2079782;28;29685;-72
2023/11/07 01:34:00;;;;;;;12.18;5.50;;;;;;;-146.25;100.00;52532.44;2071437;28;20050;-72
2023/11/07 01:35:03;;;;;;;14.65;5.47;;;;;;;-146.25;100.00;52522.28;2079137;28;25065;-72
2023/11/07 01:36:05;;;;;;;14.25;5.68;;;;;;;-146.25;100.00;52540.53;2087831;28;28113;-72
2023/11/07 01:37:09;;;;;;;14.25;5.40;;;;;;;-146.25;100.00;52518.25;2089053;28;26989;-72
2023/11/07 01:38:11;;;;;;;12.23;5.70;;;;;;;-146.25;100.00;52546.63;2088255;28;27482;-71
2023/11/07 01:39:13;;;;;;;14.43;6.07;;;;;;;-146.25;100.00;52518.25;2088919;28;20932;-71
2023/11/07 01:40:15;;;;;;;11.55;6.13;;;;;;;-146.25;100.00;52502.03;2088047;28;23625;-73
2023/11/07 01:41:17;;;;;;;12.63;5.60;;;;;;;-146.25;100.00;52550.69;2088285;28;34947;-72
2023/11/07 01:42:19;;;;;;;15.52;5.80;;;;;;;-146.25;100.00;52512.16;2088362;28;20041;-73
2023/11/07 01:43:23;;;;;;;16.60;5.68;;;;;;;-146.25;100.00;52554.75;2089177;28;20061;-73
2023/11/07 01:44:28;;;;;;;12.43;5.43;;;;;;;-146.25;100.00;52524.31;2088022;28;29538;-73
2023/11/07 01:45:30;;;;;;;12.40;5.47;;;;;;;-146.25;100.00;52508.09;2079327;28;30090;-72
2023/11/07 01:46:32;;;;;;;13.82;6.40;;;;;;;-146.25;100.00;52534.47;2071454;28;33096;-72
2023/11/07 01:47:34;;;;;;;14.00;6.32;;;;;;;-146.25;100.00;52526.34;2079857;28;30199;-73
2023/11/07 01:48:36;;;;;;;13.35;5.95;;;;;;;-146.25;100.00;52493.91;2088319;28;20052;-72
2023/11/07 01:49:38;;;;;;;18.15;6.15;;;;;;;-146.25;100.00;52516.22;2079508;28;27355;-69
2023/11/07 01:50:40;;;;;;;12.93;6.30;;;;;;;-146.25;100.00;52546.63;2079308;28;30188;-71
2023/11/07 01:51:42;;;;;;;11.88;6.00;;;;;;;-146.25;100.00;52514.19;2080119;28;24442;-71
2023/11/07 01:52:47;;;;;;;13.50;6.47;;;;;;;-146.25;100.00;52514.19;2072423;28;20988;-71
2023/11/07 01:53:49;;;;;;;18.83;5.95;;;;;;;-146.25;100.00;52514.19;2080145;28;29117;-73
2023/11/07 01:54:52;;;;;;;16.50;6.50;;;;;;;-146.25;100.00;52526.34;2080579;28;21221;-73
2023/11/07 01:55:55;;;;;;;17.70;6.97;;;;;;;-146.25;100.00;52530.41;2088578;28;27868;-73
2023/11/07 01:56:57;;;;;;;13.60;6.45;;;;;;;-146.25;100.00;52536.50;2088012;28;21122;-73
2023/11/07 01:58:00;;;;;;;14.02;6.65;;;;;;;-146.25;100.00;52520.28;2079942;28;20089;-73
2023/11/07 01:59:02;;;;;;;9.23;5.82;;;;;;;-146.25;100.00;52510.13;2079956;28;20045;-74
2023/11/07 02:00:10;;;;;;;13.95;6.50;;;;;;;-146.25;100.00;52518.25;2088163;28;20088;-73
2023/11/07 02:01:18;;;;;;;10.55;6.38;;;;;;;-146.25;100.00;52556.75;2079925;28;20120;-73
2023/11/07 02:02:22;;;;;;;13.70;7.15;;;;;;;-146.25;100.00;52516.22;2081477;28;26815;-73
2023/11/07 02:03:29;;;;;;;15.82;6.30;;;;;;;-146.25;100.00;52562.84;2088793;28;20046;-72
2023/11/07 02:04:31;;;;;;;13.70;6.50;;;;;;;-146.25;100.00;52532.44;2080247;28;22989;-70
2023/11/07 02:05:34;;;;;;;17.65;7.05;;;;;;;-146.25;100.00;52518.25;2064078;28;22353;-72
2023/11/07 02:06:36;;;;;;;14.45;6.70;;;;;;;-146.25;100.00;52510.13;2072271;28;20930;-72
2023/11/07 02:07:38;;;;;;;16.58;7.20;;;;;;;-146.25;100.00;52522.28;2087582;28;25468;-73
2023/11/07 02:08:40;;;;;;;16.30;6.75;;;;;;;-146.25;100.00;52502.03;2079478;28;20042;-72
2023/11/07 02:09:42;;;;;;;16.55;7.15;;;;;;;-146.25;100.00;52516.22;2079633;28;20073;-73
2023/11/07 02:10:46;;;;;;;13.40;6.50;;;;;;;-146.25;100.00;52485.81;2079814;28;20030;-72
2023/11/07 02:11:48;;;;;;;15.52;6.63;;;;;;;-146.25;100.00;52528.38;2079484;28;23649;-73
2023/11/07 02:12:50;;;;;;;13.05;6.30;;;;;;;-146.25;100.00;52522.28;2079566;28;30924;-73
2023/11/07 02:13:52;;;;;;;14.43;7.07;;;;;;;-146.25;100.00;52514.19;2071462;28;20200;-71
2023/11/07 02:14:54;;;;;;;12.80;7.03;;;;;;;-146.25;100.00;52510.13;2071367;28;31006;-72
2023/11/07 02:15:56;;;;;;;13.57;6.68;;;;;;;-146.25;100.00;52520.28;2079427;28;26856;-72
2023/11/07 02:16:57;;;;;;;12.45;6.90;;;;;;;-146.25;100.00;52552.72;2080408;28;22675;-72
2023/11/07 02:18:00;;;;;;;18.25;7.28;;;;;;;-146.25;100.00;52534.47;2079691;28;28437;-72
2023/11/07 02:19:03;;;;;;;13.32;6.50;;;;;;;-146.25;100.00;52530.41;2080227;28;29807;-73
2023/11/07 02:20:09;;;;;;;16.67;6.25;;;;;;;-146.25;100.00;52524.31;2079336;28;30254;-73
2023/11/07 02:21:12;;;;;;;15.10;7.18;;;;;;;-146.25;100.00;52514.19;2080083;28;20038;-72
2023/11/07 02:22:14;;;;;;;15.00;6.93;;;;;;;-146.25;100.00;52544.59;2079314;28;23149;-72
2023/11/07 02:23:30;;;;;;;12.80;6.70;;;;;;;-146.25;100.00;52518.25;2071473;28;32587;-73
2023/11/07 02:24:31;;;;;;;14.68;6.55;;;;;;;-146.25;100.00;52495.94;2073141;28;23709;-72
2023/11/07 02:25:33;;;;;;;18.50;7.40;;;;;;;-146.25;100.00;52550.69;2079331;28;26092;-72
2023/11/07 02:26:35;;;;;;;16.50;6.72;;;;;;;-146.25;100.00;52514.19;2080056;28;20119;-73
2023/11/07 02:27:37;;;;;;;17.33;6.60;;;;;;;-146.25;100.00;52508.09;2079822;28;20045;-74
2023/11/07 02:28:39;;;;;;;15.98;6.78;;;;;;;-146.25;100.00;52534.47;2079236;28;33703;-72
2023/11/07 02:29:41;;;;;;;14.07;6.85;;;;;;;-146.25;100.00;52562.84;2072002;28;20035;-73
2023/11/07 02:30:44;;;;;;;16.35;7.10;;;;;;;-146.25;100.00;52518.25;2072100;28;20120;-71
2023/11/07 02:31:46;;;;;;;16.88;7.20;;;;;;;-146.25;100.00;52463.50;2079185;28;31143;-72
2023/11/07 02:32:51;;;;;;;16.95;7.30;;;;;;;-146.25;100.00;52487.81;2071496;28;20104;-72
2023/11/07 02:33:53;;;;;;;14.45;7.40;;;;;;;-146.25;100.00;52528.38;2072187;28;20038;-73
2023/11/07 02:34:55;;;;;;;18.88;7.68;;;;;;;-146.25;100.00;52550.69;2079522;28;20034;-72
2023/11/07 02:35:57;;;;;;;13.93;7.47;;;;;;;-146.25;100.00;52520.28;2080094;28;24537;-72
2023/11/07 02:36:59;;;;;;;13.27;7.07;;;;;;;-146.25;100.00;52500.00;2079528;28;27181;-72
2023/11/07 02:38:01;;;;;;;19.35;7.60;;;;;;;-146.25;100.00;52542.56;2082295;28;25638;-72
2023/11/07 02:39:04;;;;;;;12.25;7.20;;;;;;;-146.25;100.00;52518.25;2088182;28;27035;-74
2023/11/07 02:40:11;;;;;;;18.23;7.53;;;;;;;-146.25;100.00;52508.09;2089148;28;21057;-74
2023/11/07 02:41:13;;;;;;;13.07;7.80;;;;;;;-146.25;100.00;52540.53;2087527;28;32469;-72
2023/11/07 02:42:15;;;;;;;15.50;8.63;;;;;;;-146.25;100.00;52497.97;2088291;28;20934;-72
2023/11/07 02:43:17;;;;;;;13.95;7.40;;;;;;;-146.25;100.00;52530.41;2087319;28;37005;-73
2023/11/07 02:44:20;;;;;;;15.80;7.70;;;;;;;-146.25;100.00;52518.25;2079406;28;24404;-71
2023/11/07 02:45:22;;;;;;;19.88;8.60;;;;;;;-146.25;100.00;52524.31;2072115;28;20096;-72
2023/11/07 02:46:24;;;;;;;17.90;8.25;;;;;;;-146.25;100.00;52510.13;2079496;28;21678;-72
2023/11/07 02:47:26;;;;;;;16.73;8.00;;;;;;;-146.25;100.00;52524.31;2088843;28;20171;-73
2023/11/07 02:48:28;;;;;;;16.45;7.95;;;;;;;-146.25;100.00;52530.41;2088690;28;26783;-72
2023/11/07 02:49:30;;;;;;;15.55;8.02;;;;;;;-146.25;100.00;52500.00;2088225;28;23620;-73
2023/11/07 02:50:33;;;;;;;13.43;7.25;;;;;;;-146.25;100.00;52502.03;2088391;28;27035;-71
2023/11/07 02:51:34;;;;;;;17.15;7.95;;;;;;;-146.25;100.00;52485.81;2087978;28;31345;-72
2023/11/07 02:52:37;;;;;;;14.55;7.47;;;;;;;-146.25;100.00;52506.06;2086815;28;31031;-72
2023/11/07 02:53:38;;;;;;;13.52;7.80;;;;;;;-146.25;100.00;52568.94;2086896;28;24470;-72
2023/11/07 02:54:40;;;;;;;14.75;8.27;;;;;;;-146.25;100.00;52532.44;2087043;28;20045;-72
2023/11/07 02:55:46;;;;;;;13.38;7.43;;;;;;;-146.25;100.00;52524.31;2087646;28;25335;-72
2023/11/07 02:56:48;;;;;;;14.07;7.90;;;;;;;-146.25;100.00;52500.00;2079590;28;20164;-73
2023/11/07 02:57:50;;;;;;;16.42;7.65;;;;;;;-146.25;100.00;52489.84;2079592;28;20120;-72
2023/11/07 02:58:56;;;;;;;17.90;8.18;;;;;;;-146.25;100.00;52536.50;2088634;28;20045;-72
2023/11/07 03:00:00;;;;;;;19.40;7.57;;;;;;;-146.25;100.00;52489.84;2088191;28;29993;-72
2023/11/07 03:01:02;;;;;;;14.90;7.32;;;;;;;-146.25;100.00;52528.38;2087222;28;35192;-72
2023/11/07 03:02:04;;;;;;;13.88;6.70;;;;;;;-146.25;100.00;52532.44;2079640;28;20034;-73
2023/11/07 03:03:09;;;;;;;14.75;7.30;;;;;;;-146.25;100.00;52520.28;2079354;28;30850;-72
2023/11/07 03:04:11;;;;;;;17.15;7.30;;;;;;;-146.25;100.00;52581.09;2079239;28;25522;-73
2023/11/07 03:05:14;;;;;;;12.52;6.95;;;;;;;-146.25;100.00;52526.34;2079694;28;20041;-73
2023/11/07 03:06:17;;;;;;;13.20;7.30;;;;;;;-146.25;100.00;52500.00;2087326;28;28889;-72
2023/11/07 03:07:18;;;;;;;12.20;7.05;;;;;;;-146.25;100.00;52536.50;2086972;28;27590;-72
2023/11/07 03:08:23;;;;;;;14.80;7.22;;;;;;;-146.25;100.00;52536.50;2079011;28;28315;-73
2023/11/07 03:09:27;;;;;;;13.70;6.93;;;;;;;-146.25;100.00;52546.63;2086929;28;23859;-72
2023/11/07 03:10:29;;;;;;;12.88;6.70;;;;;;;-146.25;100.00;52497.97;2088459;28;27346;-73
2023/11/07 03:11:31;;;;;;;18.45;6.70;;;;;;;-146.25;100.00;52536.50;2087044;28;32818;-72
2023/11/07 03:12:33;;;;;;;15.68;7.20;;;;;;;-146.25;100.00;52542.56;2087614;28;27484;-72
2023/11/07 03:13:35;;;;;;;14.40;6.80;;;;;;;-146.25;100.00;52570.97;2087371;28;25323;-73
2023/11/07 03:14:38;;;;;;;12.73;7.00;;;;;;;-146.25;100.00;52530.41;2117100;22;23273;-73
2023/11/07 03:15:40;;;;;;;15.73;7.88;;;;;;;-146.25;100.00;52534.47;2097247;28;38004;-74
2023/11/07 03:16:42;;;;;;;13.45;6.85;;;;;;;-146.25;100.00;52556.75;2096057;28;29673;-74
2023/11/07 03:17:44;;;;;;;14.07;6.90;;;;;;;-146.25;100.00;52526.34;2087355;28;26876;-72
2023/11/07 03:18:46;;;;;;;12.32;6.72;;;;;;;-146.25;100.00;52546.63;2079321;28;21343;-74
2023/11/07 03:19:51;;;;;;;14.57;7.00;;;;;;;-146.25;100.00;52536.50;2087319;28;32940;-74
2023/11/07 03:20:53;;;;;;;16.38;7.03;;;;;;;-146.25;100.00;52506.06;2096978;28;20056;-73
2023/11/07 03:21:56;;;;;;;16.65;7.68;;;;;;;-146.25;100.00;52536.50;2095926;28;27017;-73
2023/11/07 03:23:00;;;;;;;13.38;7.57;;;;;;;-146.25;100.00;52524.31;2095816;28;24974;-73
2023/11/07 03:24:08;;;;;;;15.02;6.82;;;;;;;-146.25;100.00;52546.63;2095061;28;27648;-73
2023/11/07 03:25:10;;;;;;;13.57;7.18;;;;;;;-146.25;100.00;52542.56;2095797;28;30594;-74
2023/11/07 03:26:11;;;;;;;11.85;7.05;;;;;;;-146.25;100.00;52497.97;2096652;28;21128;-74
2023/11/07 03:27:14;;;;;;;13.30;6.60;;;;;;;-146.25;100.00;52552.72;2096555;28;20043;-74
2023/11/07 03:28:20;;;;;;;15.70;6.78;;;;;;;-146.25;100.00;52542.56;2095745;28;31877;-73
2023/11/07 03:29:22;;;;;;;11.13;7.63;;;;;;;-146.25;100.00;52570.97;2096552;28;30461;-74
2023/11/07 03:30:26;;;;;;;15.73;7.07;;;;;;;-146.25;100.00;52532.44;2087565;28;20041;-73
2023/11/07 03:31:30;;;;;;;14.10;6.53;;;;;;;-146.25;100.00;52483.78;2087956;28;30741;-74
2023/11/07 03:32:32;;;;;;;17.13;7.15;;;;;;;-146.25;100.00;52554.75;2096032;28;35509;-73
2023/11/07 03:33:38;;;;;;;13.55;6.80;;;;;;;-146.25;100.00;52514.19;2096893;28;25834;-73
2023/11/07 03:34:40;;;;;;;11.02;6.95;;;;;;;-146.25;100.00;52524.31;2095794;28;28792;-73
2023/11/07 03:35:43;;;;;;;14.32;7.22;;;;;;;-146.25;100.00;52552.72;2096249;28;34919;-74
2023/11/07 03:36:45;;;;;;;13.73;7.57;;;;;;;-146.25;100.00;52554.75;2095592;28;35545;-72
2023/11/07 03:37:47;;;;;;;13.32;7.10;;;;;;;-146.25;100.00;52534.47;2086203;28;20041;-74
2023/11/07 03:38:51;;;;;;;14.18;7.00;;;;;;;-146.25;100.00;52548.66;2079615;28;20123;-73
2023/11/07 03:39:54;;;;;;;11.60;6.40;;;;;;;-146.25;100.00;52516.22;2079375;28;20152;-74
2023/11/07 03:40:56;;;;;;;17.60;7.30;;;;;;;-146.25;100.00;52540.53;2079071;28;20038;-73
2023/11/07 03:41:59;;;;;;;12.70;7.50;;;;;;;-146.25;100.00;52504.03;2078732;28;32905;-74
2023/11/07 03:43:01;;;;;;;13.32;6.82;;;;;;;-146.25;100.00;52512.16;2070370;28;35470;-73
2023/11/07 03:44:03;;;;;;;14.57;6.57;;;;;;;-146.25;100.00;52566.91;2079936;28;20041;-73
2023/11/07 03:45:05;;;;;;;12.48;6.45;;;;;;;-146.25;100.00;52518.25;2088178;28;23177;-73
2023/11/07 03:46:07;;;;;;;14.02;6.53;;;;;;;-146.25;100.00;52562.84;2090714;28;34080;-74
2023/11/07 03:47:09;;;;;;;15.75;6.88;;;;;;;-146.25;100.00;52534.47;2087484;28;31830;-73
2023/11/07 03:48:11;;;;;;;14.05;6.75;;;;;;;-146.25;100.00;52534.47;2087714;28;34148;-74
2023/11/07 03:49:13;;;;;;;18.75;7.15;;;;;;;-146.25;100.00;52524.31;2078454;28;38814;-73
2023/11/07 03:50:17;;;;;;;13.30;6.00;;;;;;;-146.25;100.00;52552.72;2079225;28;32863;-74
2023/11/07 03:51:19;;;;;;;11.82;6.43;;;;;;;-146.25;100.00;52560.81;2087429;28;37547;-73
2023/11/07 03:52:21;;;;;;;15.27;6.35;;;;;;;-146.25;100.00;52524.31;2078949;28;31561;-74
2023/11/07 03:53:23;;;;;;;13.32;6.38;;;;;;;-146.25;100.00;52514.19;2078979;28;33783;-73
2023/11/07 03:54:25;;;;;;;16.42;6.30;;;;;;;-146.25;100.00;52534.47;2087542;28;37671;-74
2023/11/07 03:55:27;;;;;;;9.30;6.32;;;;;;;-146.25;100.00;52583.13;2087525;28;34398;-73
2023/11/07 03:56:29;;;;;;;13.25;6.82;;;;;;;-146.25;100.00;52522.28;2087806;28;37367;-74
2023/11/07 03:57:30;;;;;;;17.15;6.53;;;;;;;-146.25;100.00;52530.41;2087786;28;34908;-74
2023/11/07 03:58:32;;;;;;;13.50;6.28;;;;;;;-146.25;100.00;52570.97;2088678;28;32955;-72
2023/11/07 03:59:34;;;;;;;10.90;6.13;;;;;;;-146.25;100.00;52514.19;2089640;28;20223;-72
2023/11/07 04:00:40;;;;;;;14.77;6.07;;;;;;;-146.25;100.00;52542.56;2090001;28;20037;-74
2023/11/07 04:01:42;;;;;;;12.55;5.82;;;;;;;-146.25;100.00;52534.47;2088729;28;30829;-74
2023/11/07 04:02:46;;;;;;;16.23;5.85;;;;;;;-146.25;100.00;52528.38;2088955;28;33034;-74
2023/11/07 04:03:49;;;;;;;14.27;5.85;;;;;;;-146.25;100.00;52512.16;2089015;28;39331;-74
2023/11/07 04:04:51;;;;;;;12.27;5.88;;;;;;;-146.25;100.00;52552.72;2088948;28;35326;-73
2023/11/07 04:05:53;;;;;;;15.48;5.78;;;;;;;-146.25;100.00;52526.34;2089116;28;33223;-73
2023/11/07 04:06:55;;;;;;;11.50;5.55;;;;;;;-146.25;100.00;52538.53;2089098;28;37321;-74
2023/11/07 04:07:57;;;;;;;16.38;5.82;;;;;;;-146.25;100.00;52536.50;2088532;28;37177;-74
2023/11/07 04:08:59;;;;;;;14.60;5.90;;;;;;;-146.25;100.00;52554.75;2088897;28;36046;-74
2023/11/07 04:10:05;;;;;;;11.68;5.60;;;;;;;-146.25;100.00;52548.66;2088735;28;36589;-74
2023/11/07 04:11:07;;;;;;;14.73;6.25;;;;;;;-146.25;100.00;52554.75;2089104;28;32422;-74
2023/11/07 04:12:09;;;;;;;12.25;5.97;;;;;;;-146.25;100.00;52514.19;2089032;28;33245;-74
2023/11/07 04:13:11;;;;;;;15.60;5.82;;;;;;;-146.25;100.00;52526.34;2089224;28;37542;-74
2023/11/07 04:14:17;;;;;;;12.77;5.88;;;;;;;-146.25;100.00;52550.69;2089271;28;32433;-73
2023/11/07 04:15:23;;;;;;;12.02;5.20;;;;;;;-146.25;100.00;52530.41;2080933;28;20104;-74
2023/11/07 04:16:26;;;;;;;12.35;5.78;;;;;;;-146.25;100.00;52522.28;2081037;28;36957;-74
2023/11/07 04:17:28;;;;;;;14.48;5.93;;;;;;;-146.25;100.00;52538.53;2089776;28;32544;-74
2023/11/07 04:18:30;;;;;;;11.82;5.60;;;;;;;-146.25;100.00;52534.47;2088653;28;33567;-73
2023/11/07 04:19:33;;;;;;;13.65;5.75;;;;;;;-146.25;100.00;52558.78;2089186;28;36588;-74
2023/11/07 04:20:36;;;;;;;12.38;5.35;;;;;;;-146.25;100.00;52522.28;2089479;28;20806;-74
2023/11/07 04:21:40;;;;;;;15.38;5.90;;;;;;;-146.25;100.00;52510.13;2089965;28;20866;-74
2023/11/07 04:22:47;;;;;;;15.20;5.53;;;;;;;-146.25;100.00;52528.38;2088466;28;34998;-73
2023/11/07 04:23:49;;;;;;;11.80;4.90;;;;;;;-146.25;100.00;52528.38;2080265;28;36406;-74
2023/11/07 04:24:51;;;;;;;15.23;5.82;;;;;;;-146.25;100.00;52556.75;2080573;28;33754;-74
2023/11/07 04:25:52;;;;;;;16.52;5.93;;;;;;;-146.25;100.00;52461.47;2089201;28;33108;-72
2023/11/07 04:26:54;;;;;;;11.65;6.03;;;;;;;-146.25;100.00;52556.75;2088585;28;35461;-74
2023/11/07 04:27:56;;;;;;;15.90;5.80;;;;;;;-146.25;100.00;52542.56;2088843;28;39182;-74
2023/11/07 04:28:58;;;;;;;14.45;6.10;;;;;;;-146.25;100.00;52514.19;2088647;28;36965;-74
2023/11/07 04:30:05;;;;;;;9.90;5.68;;;;;;;-146.25;100.00;52522.28;2089043;28;32199;-74
2023/11/07 04:31:07;;;;;;;10.98;5.78;;;;;;;-146.25;100.00;52546.63;2079783;28;39023;-74
2023/11/07 04:32:11;;;;;;;14.20;5.35;;;;;;;-146.25;100.00;52544.59;2080516;28;32155;-74
2023/11/07 04:33:13;;;;;;;16.05;6.07;;;;;;;-146.25;100.00;52564.88;2072138;28;38636;-74
2023/11/07 04:34:15;;;;;;;13.52;5.82;;;;;;;-146.25;100.00;52510.13;2105408;22;33876;-70
2023/11/07 04:35:19;;;;;;;13.13;5.68;;;;;;;-146.25;100.00;52514.19;2092000;28;20034;-73
2023/11/07 04:36:22;;;;;;;13.27;5.43;;;;;;;-146.25;100.00;52522.28;2088791;28;36742;-73
2023/11/07 04:37:27;;;;;;;14.93;5.65;;;;;;;-146.25;100.00;52540.53;2088540;28;38059;-71
2023/11/07 04:38:30;;;;;;;9.73;4.95;;;;;;;-146.25;100.00;52550.69;2088434;28;29885;-72
2023/11/07 04:39:32;;;;;;;14.00;5.13;;;;;;;-146.25;100.00;52524.31;2079002;28;39907;-72
2023/11/07 04:40:33;;;;;;;9.90;4.93;;;;;;;-146.25;100.00;52558.78;2073450;28;20042;-72
2023/11/07 04:41:41;;;;;;;13.23;5.60;;;;;;;-146.25;100.00;52483.78;2080641;28;23347;-73